aviador You're here:

KZPH Decoded Metar

in
Report Time2018-07-18 20:35:00
UTC Time2018-07-18 20:19:58
Flight Rules vfr VFR
WindCalm
Visibility9999 m
Phenomena:N/A
Clouds:N/A
Expected CloudBase > 800 ft AGL from Temp-Dew spread
CeilingNone
Temp25°C
Dew Point23°C (89% RH)
QNH1017 hPa
Raw Report
KZPH 182035Z AUTO 00000KT 10SM CLR 25/23 A3002 RMK AO2 LTG DSNT S
AND SW T02500228=

Extra information for KZPH:More info

Social comments